createdAt,value
2018-05-08T00:00:47.386Z,43.41
2018-05-08T00:02:40.288Z,43.41
2018-05-08T00:03:40.293Z,43.41
2018-05-08T00:05:33.211Z,43.32
2018-05-08T00:06:33.198Z,43.03
2018-05-08T00:08:26.103Z,43.32
2018-05-08T00:09:26.106Z,43.13
2018-05-08T00:11:19.026Z,43.32
2018-05-08T00:12:19.013Z,43.41
2018-05-08T00:14:11.914Z,43.32
2018-05-08T00:15:11.922Z,43.32
2018-05-08T00:17:04.846Z,43.32
2018-05-08T00:18:04.836Z,43.13
2018-05-08T00:19:57.748Z,43.13
2018-05-08T00:20:57.737Z,43.13
2018-05-08T00:22:50.638Z,43.13
2018-05-08T00:23:50.645Z,43.13
2018-05-08T00:25:43.565Z,43.32
2018-05-08T00:26:43.553Z,43.03
2018-05-08T00:28:36.456Z,43.13
2018-05-08T00:29:36.462Z,43.32
2018-05-08T00:31:29.378Z,43.23
2018-05-08T00:32:29.367Z,43.13
2018-05-08T00:34:22.270Z,43.13
2018-05-08T00:35:22.280Z,43.13
2018-05-08T00:37:15.195Z,43.41
2018-05-08T00:38:15.182Z,43.41
2018-05-08T00:40:08.120Z,43.61
2018-05-08T00:41:08.093Z,43.41
2018-05-08T00:43:00.993Z,43.41
2018-05-08T00:44:00.999Z,43.23
2018-05-08T00:45:53.966Z,43.32
2018-05-08T00:49:39.193Z,43.32
2018-05-08T00:50:39.195Z,43.30
2018-05-08T00:52:32.119Z,43.32
2018-05-08T00:53:32.102Z,43.30
2018-05-08T00:55:25.004Z,43.41
2018-05-08T00:56:25.009Z,43.41
2018-05-08T00:58:17.931Z,43.23
2018-05-08T00:59:17.918Z,43.23
2018-05-08T01:01:10.819Z,43.32
2018-05-08T01:02:10.821Z,43.13
2018-05-08T01:04:03.752Z,43.01
2018-05-08T01:05:03.832Z,43.59
2018-05-08T01:06:56.632Z,43.41
2018-05-08T01:07:56.634Z,43.59
2018-05-08T01:09:49.557Z,43.23
2018-05-08T01:10:49.546Z,43.32
2018-05-08T01:12:42.467Z,43.51
2018-05-08T01:13:42.452Z,43.20
2018-05-08T01:15:35.353Z,43.23
2018-05-08T01:16:35.357Z,43.30
2018-05-08T01:18:28.277Z,43.30
2018-05-08T01:19:28.261Z,43.40
2018-05-08T01:21:21.164Z,43.49
2018-05-08T01:22:21.215Z,43.41
2018-05-08T01:24:14.093Z,43.10
2018-05-08T01:25:14.077Z,43.30
2018-05-08T01:27:06.977Z,43.68
2018-05-08T01:28:06.979Z,43.49
2018-05-08T01:29:59.902Z,43.49
2018-05-08T01:30:59.884Z,43.59
2018-05-08T01:32:52.804Z,43.78
2018-05-08T01:33:52.792Z,43.40
2018-05-08T01:35:45.694Z,43.59
2018-05-08T01:36:45.698Z,43.10
2018-05-08T01:38:38.616Z,43.59
2018-05-08T01:39:38.603Z,43.40
2018-05-08T01:41:31.504Z,43.49
2018-05-08T01:42:31.509Z,43.40
2018-05-08T01:44:24.435Z,43.49
2018-05-08T01:45:24.424Z,43.49
2018-05-08T01:47:17.325Z,43.30
2018-05-08T01:48:17.329Z,43.59
2018-05-08T01:50:10.254Z,43.59
2018-05-08T01:51:10.246Z,43.68
2018-05-08T01:53:03.144Z,43.20
2018-05-08T01:54:03.149Z,43.49
2018-05-08T01:55:56.077Z,43.30
2018-05-08T01:56:56.058Z,43.49
2018-05-08T01:58:48.980Z,43.78
2018-05-08T01:59:48.967Z,43.49
2018-05-08T02:01:41.865Z,43.40
2018-05-08T02:02:41.868Z,43.78
2018-05-08T02:04:34.786Z,43.59
2018-05-08T02:05:34.773Z,43.59
2018-05-08T02:07:27.675Z,43.49
2018-05-08T02:08:27.681Z,43.78
2018-05-08T02:10:20.595Z,43.49
2018-05-08T02:11:20.583Z,43.59
2018-05-08T02:13:13.486Z,43.68
2018-05-08T02:14:13.496Z,43.59
2018-05-08T02:16:06.420Z,43.59
2018-05-08T02:17:06.406Z,43.59
2018-05-08T02:18:59.322Z,43.59
2018-05-08T02:19:59.308Z,43.78
2018-05-08T02:21:52.215Z,43.78
2018-05-08T02:22:52.225Z,43.49
2018-05-08T02:24:45.142Z,43.49
2018-05-08T02:25:45.125Z,43.78
2018-05-08T02:27:38.031Z,43.78
2018-05-08T02:28:38.034Z,43.59
2018-05-08T02:30:30.961Z,43.49
2018-05-08T02:31:30.946Z,43.98
2018-05-08T02:33:23.850Z,43.78
2018-05-08T02:34:23.853Z,43.40
2018-05-08T02:36:16.773Z,43.78
2018-05-08T02:37:16.758Z,43.49
2018-05-08T02:39:09.681Z,43.49
2018-05-08T02:40:09.666Z,43.49
2018-05-08T02:42:02.567Z,43.78
2018-05-08T02:43:02.572Z,43.78
2018-05-08T02:44:55.493Z,43.59
2018-05-08T02:45:55.477Z,43.68
2018-05-08T02:47:48.378Z,43.78
2018-05-08T02:48:48.383Z,43.49
2018-05-08T02:50:41.302Z,43.78
2018-05-08T02:51:41.292Z,43.78
2018-05-08T02:53:34.191Z,43.49
2018-05-08T02:54:34.195Z,43.59
2018-05-08T02:56:27.117Z,43.59
2018-05-08T02:57:27.101Z,43.88
2018-05-08T02:59:20.019Z,43.78
2018-05-08T03:00:20.007Z,43.59
2018-05-08T03:02:12.907Z,43.68
2018-05-08T03:03:12.908Z,43.59
2018-05-08T03:05:05.836Z,43.78
2018-05-08T03:06:05.825Z,43.68
2018-05-08T03:07:58.728Z,43.59
2018-05-08T03:08:58.729Z,43.68
2018-05-08T03:10:51.649Z,43.68
2018-05-08T03:11:51.641Z,43.78
2018-05-08T03:13:44.534Z,43.68
2018-05-08T03:14:44.540Z,43.59
2018-05-08T03:16:37.467Z,43.59
2018-05-08T03:17:37.449Z,43.59
2018-05-08T03:19:30.369Z,43.68
2018-05-08T03:20:30.355Z,43.78
2018-05-08T03:22:23.273Z,43.68
2018-05-08T03:23:23.262Z,43.68
2018-05-08T03:25:16.182Z,43.78
2018-05-08T03:26:16.163Z,43.98
2018-05-08T03:28:09.072Z,43.78
2018-05-08T03:29:09.074Z,43.59
2018-05-08T03:31:01.993Z,43.78
2018-05-08T03:32:01.980Z,43.88
2018-05-08T03:33:54.880Z,43.88
2018-05-08T03:34:54.893Z,43.68
2018-05-08T03:36:47.809Z,43.78
2018-05-08T03:37:47.795Z,44.05
2018-05-08T03:39:40.712Z,43.68
2018-05-08T03:40:40.699Z,43.76
2018-05-08T03:42:33.604Z,43.78
2018-05-08T03:43:33.613Z,43.68
2018-05-08T03:45:26.533Z,43.76
2018-05-08T03:46:26.516Z,43.85
2018-05-08T03:48:19.419Z,43.66
2018-05-08T03:49:19.422Z,43.76
2018-05-08T03:51:12.343Z,43.76
2018-05-08T03:52:12.330Z,43.88
2018-05-08T03:54:05.228Z,43.76
2018-05-08T03:55:05.233Z,43.66
2018-05-08T03:56:58.153Z,43.76
2018-05-08T03:57:58.141Z,43.66
2018-05-08T03:59:51.061Z,43.95
2018-05-08T04:00:51.050Z,43.78
2018-05-08T04:02:43.947Z,43.59
2018-05-08T04:03:43.951Z,43.78
2018-05-08T04:05:36.869Z,43.88
2018-05-08T04:06:36.857Z,43.57
2018-05-08T04:08:29.757Z,43.98
2018-05-08T04:09:29.762Z,43.78
2018-05-08T04:11:22.680Z,43.76
2018-05-08T04:12:22.665Z,43.66
2018-05-08T04:14:15.566Z,43.57
2018-05-08T04:15:15.569Z,43.76
2018-05-08T04:17:08.988Z,43.66
2018-05-08T04:18:08.968Z,43.66
2018-05-08T04:19:08.977Z,43.76
2018-05-08T04:20:08.996Z,43.76
2018-05-08T04:21:09.009Z,43.59
2018-05-08T04:22:09.000Z,43.76
2018-05-08T04:23:09.011Z,43.68
2018-05-08T04:24:09.020Z,43.68
2018-05-08T04:25:09.026Z,43.76
2018-05-08T04:26:09.038Z,43.88
2018-05-08T04:27:09.041Z,43.57
2018-05-08T04:28:09.050Z,43.78
2018-05-08T04:29:09.060Z,43.66
2018-05-08T04:30:09.067Z,43.76
2018-05-08T04:31:09.079Z,43.76
2018-05-08T04:32:09.088Z,43.57
2018-05-08T04:33:09.092Z,43.57
2018-05-08T04:34:09.108Z,43.59
2018-05-08T04:35:09.108Z,43.68
2018-05-08T04:36:09.122Z,43.78
2018-05-08T04:37:09.123Z,43.66
2018-05-08T04:38:09.135Z,43.76
2018-05-08T04:39:09.134Z,43.66
2018-05-08T04:40:09.148Z,43.66
2018-05-08T04:41:09.158Z,43.57
2018-05-08T04:42:09.200Z,43.76
2018-05-08T04:43:09.176Z,43.88
2018-05-08T04:44:09.182Z,43.76
2018-05-08T04:45:09.192Z,43.85
2018-05-08T04:46:09.198Z,43.98
2018-05-08T04:47:09.208Z,43.47
2018-05-08T04:48:09.215Z,43.57
2018-05-08T04:49:09.229Z,43.78
2018-05-08T04:50:09.233Z,43.47
2018-05-08T04:51:09.238Z,43.47
2018-05-08T04:52:09.247Z,43.57
2018-05-08T04:53:09.259Z,43.57
2018-05-08T04:54:09.263Z,43.59
2018-05-08T04:55:09.273Z,43.49
2018-05-08T04:56:09.280Z,43.47
2018-05-08T04:57:09.289Z,43.47
2018-05-08T04:58:09.298Z,43.59
2018-05-08T04:59:09.306Z,43.40
2018-05-08T05:00:09.313Z,43.40
2018-05-08T05:01:09.322Z,43.49
2018-05-08T05:02:09.330Z,43.68
2018-05-08T05:03:09.337Z,42.82
2018-05-08T05:04:09.349Z,43.30
2018-05-08T05:05:09.357Z,42.55
2018-05-08T05:06:09.360Z,42.74
2018-05-08T05:07:09.384Z,43.13
2018-05-08T05:08:09.388Z,42.35
2018-05-08T05:09:09.402Z,42.83
2018-05-08T05:10:09.395Z,42.55
2018-05-08T05:11:09.497Z,42.65
2018-05-08T05:12:09.414Z,42.65
2018-05-08T05:13:09.450Z,42.74
2018-05-08T05:14:09.429Z,42.65
2018-05-08T05:15:09.457Z,42.35
2018-05-08T05:16:09.451Z,42.55
2018-05-08T05:17:09.453Z,42.55
2018-05-08T05:18:09.461Z,42.93
2018-05-08T05:19:09.485Z,42.93
2018-05-08T05:20:09.482Z,42.83
2018-05-08T05:21:09.491Z,42.65
2018-05-08T05:22:09.506Z,42.83
2018-05-08T05:23:09.512Z,42.65
2018-05-08T05:24:09.514Z,42.35
2018-05-08T05:25:09.523Z,42.35
2018-05-08T05:26:09.531Z,42.55
2018-05-08T05:27:09.538Z,42.35
2018-05-08T05:28:09.581Z,42.65
2018-05-08T05:29:09.571Z,42.93
2018-05-08T05:30:09.564Z,42.25
2018-05-08T05:31:09.571Z,42.25
2018-05-08T05:32:09.580Z,42.28
2018-05-08T05:33:09.586Z,41.79
2018-05-08T05:34:09.598Z,41.60
2018-05-08T05:35:09.610Z,41.50
2018-05-08T05:36:09.612Z,41.41
2018-05-08T05:37:09.644Z,40.94
2018-05-08T05:38:09.629Z,40.94
2018-05-08T05:39:09.641Z,40.84
2018-05-08T05:40:09.651Z,40.46
2018-05-08T05:41:09.659Z,40.58
2018-05-08T05:42:09.665Z,40.19
2018-05-08T05:43:09.675Z,40.28
2018-05-08T05:44:09.703Z,40.00
2018-05-08T05:45:09.716Z,40.11
2018-05-08T05:46:09.701Z,39.53
2018-05-08T05:47:09.721Z,39.53
2018-05-08T05:48:09.716Z,39.53
2018-05-08T05:49:09.731Z,39.04
2018-05-08T05:50:09.738Z,38.95
2018-05-08T05:51:09.749Z,38.85
2018-05-08T05:52:09.756Z,38.56
2018-05-08T05:53:09.789Z,38.29
2018-05-08T05:54:09.784Z,38.27
2018-05-08T05:55:09.784Z,38.29
2018-05-08T05:56:09.794Z,38.48
2018-05-08T05:57:09.796Z,38.68
2018-05-08T05:58:09.808Z,38.00
2018-05-08T05:59:09.814Z,37.81
2018-05-08T06:00:09.919Z,37.71
2018-05-08T06:01:09.836Z,37.71
2018-05-08T06:02:09.839Z,37.43
2018-05-08T06:03:09.858Z,37.53
2018-05-08T06:04:09.864Z,37.43
2018-05-08T06:05:09.869Z,37.43
2018-05-08T06:06:09.879Z,37.34
2018-05-08T06:07:09.886Z,37.34
2018-05-08T06:08:09.906Z,36.95
2018-05-08T06:09:09.911Z,36.95
2018-05-08T06:10:09.914Z,36.95
2018-05-08T06:11:09.929Z,36.85
2018-05-08T06:12:09.939Z,37.05
2018-05-08T06:13:09.966Z,37.15
2018-05-08T06:14:09.946Z,37.26
2018-05-08T06:15:09.960Z,36.68
2018-05-08T06:16:09.979Z,36.97
2018-05-08T06:17:10.000Z,36.87
2018-05-08T06:18:09.987Z,36.68
2018-05-08T06:19:09.998Z,36.68
2018-05-08T06:20:10.023Z,36.87
2018-05-08T06:21:10.022Z,36.48
2018-05-08T06:22:10.022Z,36.48
2018-05-08T06:23:10.043Z,36.48
2018-05-08T06:24:10.045Z,36.40
2018-05-08T06:25:10.062Z,36.19
2018-05-08T06:26:10.077Z,36.00
2018-05-08T06:27:10.072Z,36.21
2018-05-08T06:28:10.083Z,36.21
2018-05-08T06:29:10.099Z,36.02
2018-05-08T06:30:10.156Z,36.02
2018-05-08T06:31:10.135Z,35.92
2018-05-08T06:32:10.130Z,36.11
2018-05-08T06:33:10.132Z,36.21
2018-05-08T06:34:10.145Z,36.02
2018-05-08T06:35:10.155Z,36.21
2018-05-08T06:36:10.162Z,35.82
2018-05-08T06:37:10.173Z,35.82
2018-05-08T06:38:10.182Z,35.92
2018-05-08T06:39:10.190Z,36.02
2018-05-08T06:40:10.294Z,35.72
2018-05-08T06:41:10.228Z,35.72
2018-05-08T06:42:10.223Z,36.02
2018-05-08T06:43:10.244Z,35.55
2018-05-08T06:44:10.249Z,35.35
2018-05-08T06:45:10.265Z,35.55
2018-05-08T06:46:10.262Z,35.55
2018-05-08T06:47:10.284Z,35.64
2018-05-08T06:48:10.287Z,35.45
2018-05-08T06:49:10.317Z,35.45
2018-05-08T06:50:10.300Z,35.55
2018-05-08T06:51:10.308Z,35.45
2018-05-08T06:52:10.338Z,35.16
2018-05-08T06:53:10.333Z,35.25
2018-05-08T06:54:10.340Z,35.45
2018-05-08T06:55:10.355Z,35.06
2018-05-08T06:56:10.368Z,35.06
2018-05-08T06:57:10.379Z,35.17
2018-05-08T06:58:10.378Z,35.16
2018-05-08T06:59:10.391Z,34.88
2018-05-08T07:00:10.399Z,35.06
2018-05-08T07:01:10.434Z,34.88
2018-05-08T07:02:10.467Z,34.79
2018-05-08T07:03:10.433Z,34.88
2018-05-08T07:04:10.456Z,35.08
2018-05-08T07:05:10.457Z,34.79
2018-05-08T07:06:10.478Z,34.79
2018-05-08T07:07:10.483Z,34.69
2018-05-08T07:08:10.492Z,34.59
2018-05-08T07:09:10.581Z,34.79
2018-05-08T07:10:10.514Z,34.79
2018-05-08T07:11:10.518Z,34.79
2018-05-08T07:12:10.525Z,34.59
2018-05-08T07:13:10.545Z,34.50
2018-05-08T07:14:10.552Z,34.50
2018-05-08T07:15:10.555Z,34.69
2018-05-08T07:16:10.612Z,34.50
2018-05-08T07:17:10.579Z,34.50
2018-05-08T07:18:10.589Z,34.40
2018-05-08T07:19:10.596Z,34.50
2018-05-08T07:20:10.614Z,34.30
2018-05-08T07:21:10.620Z,34.30
2018-05-08T07:22:10.628Z,34.11
2018-05-08T07:23:10.644Z,34.30
2018-05-08T07:24:10.653Z,34.40
2018-05-08T07:25:10.661Z,34.30
2018-05-08T07:26:10.681Z,34.32
2018-05-08T07:27:10.681Z,34.22
2018-05-08T07:28:10.705Z,34.12
2018-05-08T07:29:10.705Z,34.22
2018-05-08T07:30:10.721Z,34.12
2018-05-08T07:31:10.747Z,34.03
2018-05-08T07:32:10.745Z,34.03
2018-05-08T07:33:10.747Z,34.03
2018-05-08T07:34:10.755Z,34.03
2018-05-08T07:35:10.765Z,33.93
2018-05-08T07:36:10.781Z,34.03
2018-05-08T07:37:10.793Z,33.93
2018-05-08T07:38:10.903Z,34.22
2018-05-08T07:39:10.810Z,34.12
2018-05-08T07:40:10.829Z,34.12
2018-05-08T07:41:10.838Z,33.93
2018-05-08T07:42:10.840Z,34.12
2018-05-08T07:43:10.855Z,34.03
2018-05-08T07:44:10.871Z,34.03
2018-05-08T07:45:10.880Z,33.93
2018-05-08T07:46:10.890Z,33.95
2018-05-08T07:47:10.904Z,33.83
2018-05-08T07:48:10.911Z,33.73
2018-05-08T07:49:10.918Z,33.85
2018-05-08T07:50:10.930Z,33.73
2018-05-08T07:51:10.952Z,33.85
2018-05-08T07:52:10.951Z,33.83
2018-05-08T07:53:10.963Z,33.95
2018-05-08T07:54:10.972Z,33.95
2018-05-08T07:55:10.986Z,33.95
2018-05-08T07:56:10.997Z,33.85
2018-05-08T07:57:11.021Z,33.85
2018-05-08T07:58:11.014Z,33.85
2018-05-08T07:59:11.065Z,33.75
2018-05-08T08:00:11.059Z,33.75
2018-05-08T08:01:11.047Z,33.75
2018-05-08T08:02:11.060Z,33.75
2018-05-08T08:03:11.070Z,33.65
2018-05-08T08:04:11.088Z,33.75
2018-05-08T08:05:11.099Z,33.75
2018-05-08T08:06:11.106Z,33.56
2018-05-08T08:07:11.124Z,33.56
2018-05-08T08:08:11.131Z,33.56
2018-05-08T08:09:11.141Z,33.56
2018-05-08T08:10:11.149Z,33.65
2018-05-08T08:11:11.160Z,33.46
2018-05-08T08:12:11.197Z,33.65
2018-05-08T08:13:11.181Z,33.56
2018-05-08T08:14:11.201Z,33.36
2018-05-08T08:15:11.209Z,33.56
2018-05-08T08:16:11.212Z,33.46
2018-05-08T08:17:11.229Z,33.56
2018-05-08T08:18:11.254Z,33.36
2018-05-08T08:19:11.257Z,33.26
2018-05-08T08:20:11.261Z,33.36
2018-05-08T08:21:11.278Z,33.36
2018-05-08T08:22:11.286Z,33.36
2018-05-08T08:23:11.296Z,33.48
2018-05-08T08:24:11.305Z,33.38
2018-05-08T08:25:11.321Z,33.38
2018-05-08T08:26:11.331Z,33.28
2018-05-08T08:27:11.338Z,33.38
2018-05-08T08:28:11.348Z,33.09
2018-05-08T08:29:11.358Z,33.28
2018-05-08T08:30:11.370Z,33.28
2018-05-08T08:31:11.379Z,33.18
2018-05-08T08:32:11.396Z,33.28
2018-05-08T08:33:11.439Z,33.18
2018-05-08T08:34:11.414Z,32.99
2018-05-08T08:35:11.436Z,33.18
2018-05-08T08:36:11.441Z,33.28
2018-05-08T08:37:11.456Z,33.09
2018-05-08T08:38:11.465Z,32.89
2018-05-08T08:39:11.501Z,32.89
2018-05-08T08:40:11.498Z,32.99
2018-05-08T08:41:11.509Z,32.89
2018-05-08T08:42:11.526Z,33.18
2018-05-08T08:43:11.533Z,33.09
2018-05-08T08:44:11.532Z,32.99
2018-05-08T08:45:11.542Z,32.99
2018-05-08T08:46:11.551Z,32.99
2018-05-08T08:47:11.584Z,32.89
2018-05-08T08:48:11.571Z,32.89
2018-05-08T08:49:11.590Z,32.89
2018-05-08T08:50:11.596Z,32.99
2018-05-08T08:51:11.616Z,32.79
2018-05-08T08:52:11.640Z,32.99
2018-05-08T08:53:11.634Z,32.99
2018-05-08T08:54:11.664Z,33.09
2018-05-08T08:55:11.657Z,33.18
2018-05-08T08:56:11.671Z,33.18
2018-05-08T08:57:11.683Z,33.01
2018-05-08T08:58:11.689Z,33.01
2018-05-08T08:59:11.698Z,33.11
2018-05-08T09:00:11.732Z,33.01
2018-05-08T09:01:11.726Z,32.91
2018-05-08T09:02:11.737Z,33.01
2018-05-08T09:03:11.747Z,32.89
2018-05-08T09:04:11.792Z,32.91
2018-05-08T09:05:11.770Z,32.91
2018-05-08T09:06:11.782Z,33.01
2018-05-08T09:07:11.793Z,33.01
2018-05-08T09:08:11.804Z,33.11
2018-05-08T09:09:11.815Z,32.91
2018-05-08T09:10:11.838Z,32.91
2018-05-08T09:11:11.851Z,33.20
2018-05-08T09:12:11.854Z,33.01
2018-05-08T09:13:11.881Z,33.20
2018-05-08T09:14:11.870Z,33.11
2018-05-08T09:15:11.882Z,33.11
2018-05-08T09:16:11.895Z,33.11
2018-05-08T09:17:11.910Z,32.52
2018-05-08T09:18:11.916Z,32.42
2018-05-08T09:19:11.929Z,32.42
2018-05-08T09:20:11.941Z,33.20
2018-05-08T09:21:11.956Z,33.20
2018-05-08T09:22:11.962Z,33.20
2018-05-08T09:23:11.974Z,32.52
2018-05-08T09:24:11.987Z,33.01
2018-05-08T09:25:12.002Z,33.01
2018-05-08T09:26:12.010Z,33.11
2018-05-08T09:27:12.019Z,33.20
2018-05-08T09:28:12.031Z,32.42
2018-05-08T09:29:12.045Z,32.42
2018-05-08T09:30:12.055Z,32.42
2018-05-08T09:31:12.067Z,33.11
2018-05-08T09:32:12.082Z,33.11
2018-05-08T09:33:12.090Z,33.20
2018-05-08T09:34:12.100Z,33.01
2018-05-08T09:35:12.113Z,33.01
2018-05-08T09:36:12.125Z,33.01
2018-05-08T09:37:12.138Z,33.01
2018-05-08T09:38:12.146Z,33.11
2018-05-08T09:39:12.163Z,33.11
2018-05-08T09:40:12.170Z,33.01
2018-05-08T09:41:12.182Z,33.20
2018-05-08T09:42:12.191Z,33.01
2018-05-08T09:43:12.212Z,33.01
2018-05-08T09:44:12.223Z,33.20
2018-05-08T09:45:12.229Z,33.11
2018-05-08T09:46:12.238Z,33.20
2018-05-08T09:47:12.249Z,33.11
2018-05-08T09:48:12.262Z,32.91
2018-05-08T09:49:12.306Z,33.11
2018-05-08T09:50:12.297Z,33.11
2018-05-08T09:51:12.308Z,33.11
2018-05-08T09:52:12.312Z,33.01
2018-05-08T09:53:12.320Z,33.11
2018-05-08T09:54:12.334Z,32.91
2018-05-08T09:55:12.344Z,32.91
2018-05-08T09:56:12.358Z,33.11
2018-05-08T09:57:12.365Z,33.01
2018-05-08T09:58:12.383Z,33.01
2018-05-08T09:59:12.387Z,32.71
2018-05-08T10:00:12.401Z,33.01
2018-05-08T10:01:12.413Z,33.01
2018-05-08T10:02:12.421Z,33.01
2018-05-08T10:03:12.435Z,32.91
2018-05-08T10:04:12.447Z,33.11
2018-05-08T10:05:12.459Z,33.01
2018-05-08T10:06:12.472Z,33.11
2018-05-08T10:07:12.481Z,32.91
2018-05-08T10:08:12.492Z,32.91
2018-05-08T10:09:12.504Z,32.91
2018-05-08T10:10:12.515Z,33.01
2018-05-08T10:11:12.526Z,33.01
2018-05-08T10:12:12.537Z,32.91
2018-05-08T10:13:12.550Z,33.20
2018-05-08T10:14:12.572Z,32.81
2018-05-08T10:15:12.571Z,33.01
2018-05-08T10:16:12.585Z,33.20
2018-05-08T10:17:12.596Z,33.01
2018-05-08T10:18:12.605Z,33.01
2018-05-08T10:19:12.619Z,33.01
2018-05-08T10:20:12.630Z,33.01
2018-05-08T10:21:12.642Z,33.01
2018-05-08T10:22:12.657Z,32.91
2018-05-08T10:23:12.670Z,33.11
2018-05-08T10:24:12.676Z,33.01
2018-05-08T10:25:12.688Z,33.01
2018-05-08T10:26:12.698Z,33.01
2018-05-08T10:27:12.715Z,32.91
2018-05-08T10:28:12.723Z,33.11
2018-05-08T10:29:12.733Z,33.11
2018-05-08T10:30:12.743Z,32.81
2018-05-08T10:31:12.761Z,33.01
2018-05-08T10:32:12.769Z,33.20
2018-05-08T10:33:12.781Z,33.11
2018-05-08T10:34:12.789Z,33.29
2018-05-08T10:35:12.799Z,33.29
2018-05-08T10:36:12.813Z,33.29
2018-05-08T10:37:12.825Z,33.29
2018-05-08T10:38:12.840Z,33.29
2018-05-08T10:39:12.851Z,33.20
2018-05-08T10:40:12.862Z,33.29
2018-05-08T10:41:12.878Z,33.20
2018-05-08T10:42:12.878Z,33.20
2018-05-08T10:43:12.904Z,33.20
2018-05-08T10:44:12.906Z,33.20
2018-05-08T10:45:12.920Z,33.20
2018-05-08T10:46:13.010Z,33.39
2018-05-08T10:47:12.941Z,33.39
2018-05-08T10:48:12.950Z,33.39
2018-05-08T10:49:12.966Z,33.20
2018-05-08T10:50:12.977Z,33.39
2018-05-08T10:51:12.985Z,33.39
2018-05-08T10:52:12.998Z,33.39
2018-05-08T10:53:13.009Z,33.59
2018-05-08T10:54:13.020Z,33.59
2018-05-08T10:55:13.032Z,33.49
2018-05-08T10:56:13.044Z,33.78
2018-05-08T10:57:13.056Z,33.59
2018-05-08T10:58:13.069Z,33.69
2018-05-08T10:59:13.078Z,33.59
2018-05-08T11:00:13.089Z,33.49
2018-05-08T11:01:13.100Z,33.59
2018-05-08T11:02:13.110Z,33.49
2018-05-08T11:03:13.128Z,33.78
2018-05-08T11:04:13.136Z,33.78
2018-05-08T11:05:13.145Z,33.78
2018-05-08T11:06:13.157Z,33.69
2018-05-08T11:07:13.167Z,33.78
2018-05-08T11:08:13.181Z,33.88
2018-05-08T11:09:13.195Z,33.77
2018-05-08T11:10:13.203Z,33.88
2018-05-08T11:11:13.217Z,33.77
2018-05-08T11:12:13.224Z,33.78
2018-05-08T11:13:13.234Z,33.98
2018-05-08T11:14:13.249Z,33.98
2018-05-08T11:15:13.259Z,33.98
2018-05-08T11:16:13.270Z,33.86
2018-05-08T11:17:13.283Z,33.86
2018-05-08T11:18:13.292Z,33.96
2018-05-08T11:19:13.312Z,33.96
2018-05-08T11:20:13.314Z,33.96
2018-05-08T11:21:13.330Z,33.77
2018-05-08T11:22:13.340Z,34.06
2018-05-08T11:23:13.350Z,33.96
2018-05-08T11:24:13.360Z,33.77
2018-05-08T11:25:13.373Z,33.96
2018-05-08T11:26:13.384Z,34.16
2018-05-08T11:27:13.395Z,34.16
2018-05-08T11:28:13.406Z,34.16
2018-05-08T11:29:13.420Z,34.06
2018-05-08T11:30:13.428Z,34.16
2018-05-08T11:31:13.440Z,33.96
2018-05-08T11:32:13.451Z,34.16
2018-05-08T11:33:13.463Z,34.16
2018-05-08T11:34:13.473Z,34.06
2018-05-08T11:35:13.485Z,34.06
2018-05-08T11:36:13.500Z,34.16
2018-05-08T11:37:13.508Z,34.25
2018-05-08T11:38:13.515Z,34.25
2018-05-08T11:39:13.572Z,34.35
2018-05-08T11:40:13.541Z,34.45
2018-05-08T11:41:13.556Z,34.45
2018-05-08T11:42:13.569Z,34.35
2018-05-08T11:43:13.574Z,34.25
2018-05-08T11:44:13.586Z,34.35
2018-05-08T11:45:13.598Z,34.43
2018-05-08T11:46:13.608Z,34.45
2018-05-08T11:47:13.618Z,34.55
2018-05-08T11:48:13.636Z,34.55
2018-05-08T11:49:13.652Z,34.53
2018-05-08T11:50:13.654Z,34.63
2018-05-08T11:51:13.661Z,34.82
2018-05-08T11:52:13.675Z,34.63
2018-05-08T11:53:13.690Z,34.72
2018-05-08T11:54:13.697Z,34.63
2018-05-08T11:55:13.710Z,34.63
2018-05-08T11:56:13.721Z,34.72
2018-05-08T11:57:13.731Z,34.92
2018-05-08T11:58:13.741Z,34.63
2018-05-08T11:59:13.757Z,34.82
2018-05-08T12:00:13.809Z,34.82
2018-05-08T12:01:13.783Z,34.72
2018-05-08T12:02:13.787Z,34.72
2018-05-08T12:03:13.798Z,35.02
2018-05-08T12:04:13.808Z,35.02
2018-05-08T12:05:13.820Z,35.02
2018-05-08T12:06:13.832Z,34.82
2018-05-08T12:07:13.841Z,35.21
2018-05-08T12:08:13.853Z,34.92
2018-05-08T12:09:13.874Z,35.11
2018-05-08T12:10:13.873Z,35.11
2018-05-08T12:11:13.892Z,35.02
2018-05-08T12:12:13.902Z,35.02
2018-05-08T12:13:13.909Z,35.21
2018-05-08T12:14:13.942Z,35.41
2018-05-08T12:15:13.934Z,35.50
2018-05-08T12:16:13.941Z,35.21
2018-05-08T12:17:13.953Z,35.41
2018-05-08T12:18:13.968Z,35.11
2018-05-08T12:19:13.978Z,35.31
2018-05-08T12:20:13.987Z,35.31
2018-05-08T12:21:14.002Z,35.58
2018-05-08T12:22:14.119Z,35.50
2018-05-08T12:23:14.019Z,35.50
2018-05-08T12:24:14.030Z,35.41
2018-05-08T12:25:14.038Z,35.50
2018-05-08T12:26:14.054Z,35.50
2018-05-08T12:27:14.065Z,35.49
2018-05-08T12:28:14.075Z,35.39
2018-05-08T12:29:14.099Z,35.49
2018-05-08T12:30:14.095Z,35.97
2018-05-08T12:31:14.106Z,36.07
2018-05-08T12:32:14.120Z,35.97
2018-05-08T12:33:14.127Z,35.97
2018-05-08T12:34:14.143Z,35.97
2018-05-08T12:35:14.150Z,35.97
2018-05-08T12:36:14.231Z,35.97
2018-05-08T12:37:14.172Z,35.78
2018-05-08T12:38:14.180Z,35.97
2018-05-08T12:39:14.192Z,35.88
2018-05-08T12:40:14.207Z,36.16
2018-05-08T12:41:14.216Z,36.16
2018-05-08T12:42:14.299Z,35.97
2018-05-08T12:43:14.235Z,36.16
2018-05-08T12:44:14.256Z,36.07
2018-05-08T12:45:14.256Z,36.16
2018-05-08T12:46:14.270Z,35.97
2018-05-08T12:47:14.286Z,35.97
2018-05-08T12:48:14.293Z,36.24
2018-05-08T12:49:14.307Z,36.46
2018-05-08T12:50:14.310Z,36.24
2018-05-08T12:51:14.331Z,36.36
2018-05-08T12:52:14.338Z,36.24
2018-05-08T12:53:14.345Z,36.15
2018-05-08T12:54:14.355Z,35.96
2018-05-08T12:55:14.368Z,36.05
2018-05-08T12:56:14.476Z,36.15
2018-05-08T12:57:14.386Z,36.24
2018-05-08T12:58:14.396Z,36.44
2018-05-08T12:59:14.410Z,36.44
2018-05-08T13:00:14.422Z,36.44
2018-05-08T13:01:14.436Z,36.44
2018-05-08T13:02:14.467Z,36.73
2018-05-08T13:03:14.463Z,36.73
2018-05-08T13:04:14.465Z,36.54
2018-05-08T13:05:14.542Z,36.44
2018-05-08T13:06:14.488Z,36.63
2018-05-08T13:07:14.498Z,36.93
2018-05-08T13:08:14.550Z,36.73
2018-05-08T13:09:14.521Z,36.63
2018-05-08T13:10:14.534Z,36.83
2018-05-08T13:11:14.542Z,36.93
2018-05-08T13:12:14.557Z,36.63
2018-05-08T13:13:14.561Z,36.93
2018-05-08T13:14:14.570Z,37.02
2018-05-08T13:15:14.591Z,36.93
2018-05-08T13:16:14.592Z,37.02
2018-05-08T13:17:14.601Z,37.22
2018-05-08T13:18:14.616Z,37.22
2018-05-08T13:19:14.627Z,37.12
2018-05-08T13:20:14.635Z,37.22
2018-05-08T13:21:14.654Z,37.22
2018-05-08T13:22:14.661Z,37.22
2018-05-08T13:23:14.665Z,37.12
2018-05-08T13:24:14.750Z,37.01
2018-05-08T13:25:14.688Z,37.01
2018-05-08T13:26:14.700Z,36.93
2018-05-08T13:27:14.708Z,36.93
2018-05-08T13:28:14.746Z,36.81
2018-05-08T13:29:14.731Z,36.91
2018-05-08T13:30:14.747Z,36.91
2018-05-08T13:31:14.803Z,37.30
2018-05-08T13:32:14.761Z,37.10
2018-05-08T13:33:14.778Z,37.49
2018-05-08T13:34:14.782Z,37.39
2018-05-08T13:35:14.795Z,37.20
2018-05-08T13:36:14.824Z,37.49
2018-05-08T13:37:14.817Z,37.20
2018-05-08T13:38:14.840Z,37.49
2018-05-08T13:39:14.838Z,37.39
2018-05-08T13:40:14.851Z,37.39
2018-05-08T13:41:14.867Z,37.59
2018-05-08T13:42:14.866Z,37.39
2018-05-08T13:43:14.879Z,37.49
2018-05-08T13:44:14.885Z,37.39
2018-05-08T13:45:14.913Z,37.59
2018-05-08T13:46:14.928Z,37.39
2018-05-08T13:47:14.921Z,37.49
2018-05-08T13:48:15.039Z,37.30
2018-05-08T13:49:14.942Z,37.59
2018-05-08T13:50:14.956Z,37.68
2018-05-08T13:51:14.961Z,37.68
2018-05-08T13:52:14.972Z,37.47
2018-05-08T13:53:14.984Z,37.59
2018-05-08T13:54:14.995Z,37.59
2018-05-08T13:55:15.000Z,37.68
2018-05-08T13:56:15.020Z,37.78
2018-05-08T13:57:15.026Z,37.57
2018-05-08T13:58:15.046Z,37.86
2018-05-08T13:59:15.043Z,37.78
2018-05-08T14:00:15.051Z,37.76
2018-05-08T14:01:15.072Z,37.86
2018-05-08T14:02:15.073Z,37.86
2018-05-08T14:03:15.086Z,37.86
2018-05-08T14:04:15.095Z,37.86
2018-05-08T14:05:15.107Z,37.86
2018-05-08T14:06:15.116Z,38.06
2018-05-08T14:07:15.125Z,37.86
2018-05-08T14:08:15.140Z,37.96
2018-05-08T14:09:15.147Z,37.86
2018-05-08T14:10:15.164Z,37.86
2018-05-08T14:11:15.169Z,38.06
2018-05-08T14:12:15.179Z,37.96
2018-05-08T14:13:15.190Z,37.86